FMNM

Amborovy Airport

Madagascar
METAR FMNM 230700Z 36006KT 9999 VCSH SCT020CB 32/24 Q1009 NOSIG
Observed Flight Rules
Feb-23 @ 07:00 UTC (an hour ago) Visual Flight Rules
Wind Visibility Clouds
360° at 6 knots 10,000+ meters
  • Scattered at 2,000' AGL
Temperatures Readings
Current 32°C / 90°F
Dewpoint 24°C / 75°F
Humidity 63%
Altimeter 29.79" Hg
Pressure 1009 hPa
Elevation 18
METAR FMNM 230700Z 36006KT 9999 VCSH SCT020CB 32/24 Q1009 NOSIG
Observed Flight Rules
Feb-23 @ 07:00 UTC
(an hour ago)
VFR
Wind Visibility
360° at 6 knots 10,000+ meters
Clouds
  • Scattered at 2,000' AGL
Temperature Dewpoint
32°C / 90°F 24°C / 75°F
Humidity Altimeter Pressure
63% 29.79" Hg 1009 hPa